sensor_id;sensor_type;location;lat;lon;timestamp;pressure;altitude;pressure_sealevel;temperature;humidity
59104;BME280;51449;51.676;5.812;2023-04-21T00:01:34;101478.59;;;8.59;78.36
59104;BME280;51449;51.676;5.812;2023-04-21T00:03:56;101474.94;;;8.64;77.88
59104;BME280;51449;51.676;5.812;2023-04-21T00:06:18;101470.44;;;8.68;77.75
59104;BME280;51449;51.676;5.812;2023-04-21T00:08:43;101463.03;;;8.68;77.63
59104;BME280;51449;51.676;5.812;2023-04-21T00:11:06;101459.28;;;8.64;78.65
59104;BME280;51449;51.676;5.812;2023-04-21T00:13:28;101459.56;;;8.63;78.33
59104;BME280;51449;51.676;5.812;2023-04-21T00:15:50;101456.81;;;8.63;78.92
59104;BME280;51449;51.676;5.812;2023-04-21T00:18:12;101440.34;;;8.63;78.58
59104;BME280;51449;51.676;5.812;2023-04-21T00:20:34;101443.88;;;8.63;78.56
59104;BME280;51449;51.676;5.812;2023-04-21T00:22:58;101431.28;;;8.62;78.77
59104;BME280;51449;51.676;5.812;2023-04-21T00:25:20;101433.00;;;8.58;78.83
59104;BME280;51449;51.676;5.812;2023-04-21T00:27:43;101420.91;;;8.59;78.63
59104;BME280;51449;51.676;5.812;2023-04-21T00:30:05;101422.63;;;8.55;79.09
59104;BME280;51449;51.676;5.812;2023-04-21T00:32:30;101425.72;;;8.53;78.55
59104;BME280;51449;51.676;5.812;2023-04-21T00:34:52;101425.72;;;8.53;78.84
59104;BME280;51449;51.676;5.812;2023-04-21T00:37:14;101428.94;;;8.55;78.75
59104;BME280;51449;51.676;5.812;2023-04-21T00:39:35;101438.31;;;8.54;78.54
59104;BME280;51449;51.676;5.812;2023-04-21T00:41:57;101428.75;;;8.52;78.71
59104;BME280;51449;51.676;5.812;2023-04-21T00:44:19;101436.19;;;8.51;78.86
59104;BME280;51449;51.676;5.812;2023-04-21T00:46:41;101426.28;;;8.50;78.57
59104;BME280;51449;51.676;5.812;2023-04-21T00:49:05;101442.78;;;8.50;79.16
59104;BME280;51449;51.676;5.812;2023-04-21T00:51:28;101439.84;;;8.47;79.01
59104;BME280;51449;51.676;5.812;2023-04-21T00:53:54;101424.47;;;8.46;78.99
59104;BME280;51449;51.676;5.812;2023-04-21T00:56:17;101427.72;;;8.48;78.79
59104;BME280;51449;51.676;5.812;2023-04-21T00:58:41;101425.59;;;8.45;79.60
59104;BME280;51449;51.676;5.812;2023-04-21T01:01:03;101428.34;;;8.45;78.95
59104;BME280;51449;51.676;5.812;2023-04-21T01:03:25;101408.69;;;8.38;80.04
59104;BME280;51449;51.676;5.812;2023-04-21T01:05:49;101408.97;;;8.36;79.92
59104;BME280;51449;51.676;5.812;2023-04-21T01:08:11;101417.22;;;8.36;79.82
59104;BME280;51449;51.676;5.812;2023-04-21T01:10:33;101414.47;;;8.36;79.78
59104;BME280;51449;51.676;5.812;2023-04-21T01:12:55;101405.06;;;8.42;79.23
59104;BME280;51449;51.676;5.812;2023-04-21T01:15:18;101414.81;;;8.48;78.94
59104;BME280;51449;51.676;5.812;2023-04-21T01:17:41;101402.31;;;8.56;79.06
59104;BME280;51449;51.676;5.812;2023-04-21T01:20:09;101399.94;;;8.63;78.58
59104;BME280;51449;51.676;5.812;2023-04-21T01:22:34;101388.66;;;8.65;78.41
59104;BME280;51449;51.676;5.812;2023-04-21T01:24:58;101396.59;;;8.66;78.37
59104;BME280;51449;51.676;5.812;2023-04-21T01:27:20;101403.00;;;8.62;78.42
59104;BME280;51449;51.676;5.812;2023-04-21T01:29:42;101406.69;;;8.57;78.82
59104;BME280;51449;51.676;5.812;2023-04-21T01:32:12;101407.81;;;8.56;79.06
59104;BME280;51449;51.676;5.812;2023-04-21T01:34:37;101405.06;;;8.56;79.49
59104;BME280;51449;51.676;5.812;2023-04-21T01:37:01;101409.72;;;8.55;79.65
59104;BME280;51449;51.676;5.812;2023-04-21T01:39:23;101403.75;;;8.53;79.51
59104;BME280;51449;51.676;5.812;2023-04-21T01:41:44;101394.66;;;8.53;79.95
59104;BME280;51449;51.676;5.812;2023-04-21T01:44:06;101404.34;;;8.50;79.90
59104;BME280;51449;51.676;5.812;2023-04-21T01:46:28;101393.84;;;8.52;80.35
59104;BME280;51449;51.676;5.812;2023-04-21T01:48:50;101398.44;;;8.57;80.09
59104;BME280;51449;51.676;5.812;2023-04-21T01:51:12;101390.72;;;8.59;79.64
59104;BME280;51449;51.676;5.812;2023-04-21T01:53:34;101380.53;;;8.60;80.30
59104;BME280;51449;51.676;5.812;2023-04-21T01:55:55;101378.59;;;8.60;79.69
59104;BME280;51449;51.676;5.812;2023-04-21T01:58:17;101380.53;;;8.60;79.86
59104;BME280;51449;51.676;5.812;2023-04-21T02:00:39;101379.72;;;8.59;80.43
59104;BME280;51449;51.676;5.812;2023-04-21T02:03:01;101362.09;;;8.60;80.44
59104;BME280;51449;51.676;5.812;2023-04-21T02:05:23;101365.19;;;8.59;80.72
59104;BME280;51449;51.676;5.812;2023-04-21T02:07:45;101376.06;;;8.64;79.98
59104;BME280;51449;51.676;5.812;2023-04-21T02:10:08;101364.44;;;8.67;80.12
59104;BME280;51449;51.676;5.812;2023-04-21T02:12:30;101355.06;;;8.68;80.27
59104;BME280;51449;51.676;5.812;2023-04-21T02:14:52;101358.94;;;8.67;80.32
59104;BME280;51449;51.676;5.812;2023-04-21T02:17:14;101344.19;;;8.63;80.40
59104;BME280;51449;51.676;5.812;2023-04-21T02:19:37;101360.16;;;8.61;81.05
59104;BME280;51449;51.676;5.812;2023-04-21T02:21:59;101358.75;;;8.63;80.93
59104;BME280;51449;51.676;5.812;2023-04-21T02:24:21;101356.84;;;8.64;81.18
59104;BME280;51449;51.676;5.812;2023-04-21T02:26:43;101354.25;;;8.67;80.92
59104;BME280;51449;51.676;5.812;2023-04-21T02:29:04;101353.16;;;8.68;80.27
59104;BME280;51449;51.676;5.812;2023-04-21T02:31:27;101355.28;;;8.71;80.67
59104;BME280;51449;51.676;5.812;2023-04-21T02:33:49;101349.78;;;8.71;80.69
59104;BME280;51449;51.676;5.812;2023-04-21T02:36:11;101344.91;;;8.68;80.80
59104;BME280;51449;51.676;5.812;2023-04-21T02:38:33;101338.91;;;8.66;81.23
59104;BME280;51449;51.676;5.812;2023-04-21T02:40:56;101340.34;;;8.64;81.17
59104;BME280;51449;51.676;5.812;2023-04-21T02:43:18;101338.41;;;8.64;81.62
59104;BME280;51449;51.676;5.812;2023-04-21T02:45:42;101337.59;;;8.64;82.02
59104;BME280;51449;51.676;5.812;2023-04-21T02:48:05;101339.84;;;8.62;82.23
59104;BME280;51449;51.676;5.812;2023-04-21T02:50:27;101338.19;;;8.61;82.10
59104;BME280;51449;51.676;5.812;2023-04-21T02:52:49;101337.38;;;8.60;82.42
59104;BME280;51449;51.676;5.812;2023-04-21T02:55:11;101341.28;;;8.59;82.65
59104;BME280;51449;51.676;5.812;2023-04-21T02:57:35;101339.34;;;8.60;81.93
59104;BME280;51449;51.676;5.812;2023-04-21T02:59:57;101335.78;;;8.59;82.30
59104;BME280;51449;51.676;5.812;2023-04-21T03:02:18;101334.97;;;8.59;82.28
59104;BME280;51449;51.676;5.812;2023-04-21T03:04:40;101328.63;;;8.58;82.00
59104;BME280;51449;51.676;5.812;2023-04-21T03:07:02;101336.59;;;8.60;82.04
59104;BME280;51449;51.676;5.812;2023-04-21T03:09:25;101325.59;;;8.60;82.54
59104;BME280;51449;51.676;5.812;2023-04-21T03:11:47;101328.34;;;8.60;82.10
59104;BME280;51449;51.676;5.812;2023-04-21T03:14:09;101324.97;;;8.63;82.25
59104;BME280;51449;51.676;5.812;2023-04-21T03:16:31;101328.53;;;8.63;82.37
59104;BME280;51449;51.676;5.812;2023-04-21T03:18:53;101319.69;;;8.66;82.37
59104;BME280;51449;51.676;5.812;2023-04-21T03:21:15;101319.88;;;8.70;82.02
59104;BME280;51449;51.676;5.812;2023-04-21T03:23:36;101317.13;;;8.70;82.31
59104;BME280;51449;51.676;5.812;2023-04-21T03:25:58;101317.63;;;8.72;82.51
59104;BME280;51449;51.676;5.812;2023-04-21T03:28:20;101320.88;;;8.74;82.30
59104;BME280;51449;51.676;5.812;2023-04-21T03:30:42;101316.50;;;8.73;82.29
59104;BME280;51449;51.676;5.812;2023-04-21T03:33:04;101317.50;;;8.77;82.16
59104;BME280;51449;51.676;5.812;2023-04-21T03:35:27;101308.97;;;8.78;81.78
59104;BME280;51449;51.676;5.812;2023-04-21T03:37:51;101318.84;;;8.79;81.88
59104;BME280;51449;51.676;5.812;2023-04-21T03:40:14;101320.78;;;8.79;81.35
59104;BME280;51449;51.676;5.812;2023-04-21T03:42:37;101319.63;;;8.80;81.19
59104;BME280;51449;51.676;5.812;2023-04-21T03:45:07;101309.47;;;8.81;81.30
59104;BME280;51449;51.676;5.812;2023-04-21T03:47:30;101303.78;;;8.77;81.37
59104;BME280;51449;51.676;5.812;2023-04-21T03:49:52;101319.75;;;8.75;81.49
59104;BME280;51449;51.676;5.812;2023-04-21T03:52:14;101313.75;;;8.73;81.55
59104;BME280;51449;51.676;5.812;2023-04-21T03:54:36;101306.66;;;8.72;81.05
59104;BME280;51449;51.676;5.812;2023-04-21T03:56:58;101305.84;;;8.71;80.94
59104;BME280;51449;51.676;5.812;2023-04-21T03:59:20;101310.53;;;8.71;81.15
59104;BME280;51449;51.676;5.812;2023-04-21T04:01:42;101310.31;;;8.67;81.03
59104;BME280;51449;51.676;5.812;2023-04-21T04:04:04;101308.69;;;8.66;81.04
59104;BME280;51449;51.676;5.812;2023-04-21T04:06:27;101305.16;;;8.66;81.05
59104;BME280;51449;51.676;5.812;2023-04-21T04:08:49;101310.66;;;8.66;81.07
59104;BME280;51449;51.676;5.812;2023-04-21T04:11:10;101312.56;;;8.65;81.00
59104;BME280;51449;51.676;5.812;2023-04-21T04:13:32;101304.63;;;8.64;80.94
59104;BME280;51449;51.676;5.812;2023-04-21T04:15:54;101307.38;;;8.64;81.20
59104;BME280;51449;51.676;5.812;2023-04-21T04:18:16;101310.94;;;8.64;81.13
59104;BME280;51449;51.676;5.812;2023-04-21T04:20:38;101308.50;;;8.63;81.03
59104;BME280;51449;51.676;5.812;2023-04-21T04:23:00;101321.13;;;8.64;80.88
59104;BME280;51449;51.676;5.812;2023-04-21T04:25:22;101317.88;;;8.62;80.99
59104;BME280;51449;51.676;5.812;2023-04-21T04:27:44;101309.91;;;8.60;80.63
59104;BME280;51449;51.676;5.812;2023-04-21T04:30:07;101315.13;;;8.62;80.86
59104;BME280;51449;51.676;5.812;2023-04-21T04:32:29;101309.13;;;8.60;80.96
59104;BME280;51449;51.676;5.812;2023-04-21T04:34:51;101310.72;;;8.61;80.92
59104;BME280;51449;51.676;5.812;2023-04-21T04:37:13;101310.72;;;8.61;80.99
59104;BME280;51449;51.676;5.812;2023-04-21T04:39:36;101306.88;;;8.62;80.47
59104;BME280;51449;51.676;5.812;2023-04-21T04:41:57;101303.00;;;8.63;80.73
59104;BME280;51449;51.676;5.812;2023-04-21T04:44:19;101298.31;;;8.63;80.57
59104;BME280;51449;51.676;5.812;2023-04-21T04:46:42;101304.31;;;8.65;80.50
59104;BME280;51449;51.676;5.812;2023-04-21T04:49:04;101305.16;;;8.66;80.85
59104;BME280;51449;51.676;5.812;2023-04-21T04:51:26;101306.75;;;8.67;80.67
59104;BME280;51449;51.676;5.812;2023-04-21T04:53:48;101304.53;;;8.69;81.11
59104;BME280;51449;51.676;5.812;2023-04-21T04:56:11;101313.06;;;8.67;81.17
59104;BME280;51449;51.676;5.812;2023-04-21T04:58:33;101306.47;;;8.68;81.45
59104;BME280;51449;51.676;5.812;2023-04-21T05:00:55;101308.06;;;8.69;81.42
59104;BME280;51449;51.676;5.812;2023-04-21T05:03:17;101314.38;;;8.70;81.56
59104;BME280;51449;51.676;5.812;2023-04-21T05:05:39;101312.13;;;8.72;81.73
59104;BME280;51449;51.676;5.812;2023-04-21T05:08:01;101316.19;;;8.74;81.12
59104;BME280;51449;51.676;5.812;2023-04-21T05:10:23;101315.09;;;8.75;81.05
59104;BME280;51449;51.676;5.812;2023-04-21T05:12:45;101323.53;;;8.79;81.55
59104;BME280;51449;51.676;5.812;2023-04-21T05:15:07;101321.28;;;8.81;81.38
59104;BME280;51449;51.676;5.812;2023-04-21T05:17:29;101324.53;;;8.83;81.11
59104;BME280;51449;51.676;5.812;2023-04-21T05:19:51;101335.19;;;8.85;81.09
59104;BME280;51449;51.676;5.812;2023-04-21T05:22:13;101339.59;;;8.86;81.41
59104;BME280;51449;51.676;5.812;2023-04-21T05:24:35;101340.41;;;8.86;81.28
59104;BME280;51449;51.676;5.812;2023-04-21T05:26:58;101339.25;;;8.87;81.46
59104;BME280;51449;51.676;5.812;2023-04-21T05:29:20;101343.66;;;8.88;81.55
59104;BME280;51449;51.676;5.812;2023-04-21T05:31:41;101343.31;;;8.90;81.61
59104;BME280;51449;51.676;5.812;2023-04-21T05:34:03;101346.91;;;8.90;82.36
59104;BME280;51449;51.676;5.812;2023-04-21T05:36:26;101346.28;;;8.93;81.49
59104;BME280;51449;51.676;5.812;2023-04-21T05:38:48;101348.91;;;8.98;81.60
59104;BME280;51449;51.676;5.812;2023-04-21T05:41:10;101348.28;;;9.02;81.56
59104;BME280;51449;51.676;5.812;2023-04-21T05:43:32;101343.28;;;9.04;81.56
59104;BME280;51449;51.676;5.812;2023-04-21T05:45:54;101342.19;;;9.05;81.31
59104;BME280;51449;51.676;5.812;2023-04-21T05:48:15;101349.00;;;9.07;81.91
59104;BME280;51449;51.676;5.812;2023-04-21T05:50:37;101361.59;;;9.08;81.92
59104;BME280;51449;51.676;5.812;2023-04-21T05:52:59;101355.19;;;9.13;81.52
59104;BME280;51449;51.676;5.812;2023-04-21T05:55:22;101358.44;;;9.15;81.67
59104;BME280;51449;51.676;5.812;2023-04-21T05:57:44;101354.31;;;9.26;81.80
59104;BME280;51449;51.676;5.812;2023-04-21T06:00:06;101348.88;;;9.35;81.98
59104;BME280;51449;51.676;5.812;2023-04-21T06:02:29;101354.94;;;9.46;82.37
59104;BME280;51449;51.676;5.812;2023-04-21T06:04:51;101349.50;;;9.54;82.19
59104;BME280;51449;51.676;5.812;2023-04-21T06:07:14;101347.13;;;9.61;82.98
59104;BME280;51449;51.676;5.812;2023-04-21T06:09:39;101345.53;;;9.69;82.44
59104;BME280;51449;51.676;5.812;2023-04-21T06:12:02;101339.25;;;9.77;82.86
59104;BME280;51449;51.676;5.812;2023-04-21T06:14:24;101339.47;;;9.81;82.50
59104;BME280;51449;51.676;5.812;2023-04-21T06:16:46;101325.88;;;9.84;82.52
59104;BME280;51449;51.676;5.812;2023-04-21T06:19:08;101337.22;;;9.92;82.68
59104;BME280;51449;51.676;5.812;2023-04-21T06:21:29;101332.09;;;9.99;82.62
59104;BME280;51449;51.676;5.812;2023-04-21T06:23:53;101333.88;;;10.03;82.87
59104;BME280;51449;51.676;5.812;2023-04-21T06:26:15;101335.38;;;10.10;82.52
59104;BME280;51449;51.676;5.812;2023-04-21T06:28:36;101333.28;;;10.15;82.28
59104;BME280;51449;51.676;5.812;2023-04-21T06:31:00;101330.53;;;10.15;81.88
59104;BME280;51449;51.676;5.812;2023-04-21T06:33:24;101341.56;;;10.24;82.02
59104;BME280;51449;51.676;5.812;2023-04-21T06:35:47;101347.66;;;10.35;82.20
59104;BME280;51449;51.676;5.812;2023-04-21T06:38:09;101337.94;;;10.46;82.82
59104;BME280;51449;51.676;5.812;2023-04-21T06:40:31;101337.31;;;10.58;82.83
59104;BME280;51449;51.676;5.812;2023-04-21T06:42:53;101332.34;;;10.68;82.84
59104;BME280;51449;51.676;5.812;2023-04-21T06:45:14;101337.34;;;10.75;82.83
59104;BME280;51449;51.676;5.812;2023-04-21T06:47:36;101332.34;;;10.86;82.48
59104;BME280;51449;51.676;5.812;2023-04-21T06:49:58;101340.78;;;10.98;82.10
59104;BME280;51449;51.676;5.812;2023-04-21T06:52:20;101343.03;;;11.13;81.96
59104;BME280;51449;51.676;5.812;2023-04-21T06:54:42;101341.25;;;11.26;81.65
59104;BME280;51449;51.676;5.812;2023-04-21T06:57:04;101335.06;;;11.38;81.09
59104;BME280;51449;51.676;5.812;2023-04-21T06:59:27;101337.34;;;11.45;80.18
59104;BME280;51449;51.676;5.812;2023-04-21T07:01:49;101335.22;;;11.50;79.86
59104;BME280;51449;51.676;5.812;2023-04-21T07:04:12;101343.66;;;11.54;79.52
59104;BME280;51449;51.676;5.812;2023-04-21T07:06:34;101333.56;;;11.58;79.16
59104;BME280;51449;51.676;5.812;2023-04-21T07:08:56;101332.44;;;11.59;78.45
59104;BME280;51449;51.676;5.812;2023-04-21T07:11:18;101331.97;;;11.66;78.27
59104;BME280;51449;51.676;5.812;2023-04-21T07:13:40;101340.19;;;11.74;77.86
59104;BME280;51449;51.676;5.812;2023-04-21T07:16:02;101345.41;;;11.76;77.47
59104;BME280;51449;51.676;5.812;2023-04-21T07:18:24;101342.28;;;11.77;77.18
59104;BME280;51449;51.676;5.812;2023-04-21T07:20:46;101341.00;;;11.84;77.08
59104;BME280;51449;51.676;5.812;2023-04-21T07:23:08;101344.91;;;11.91;76.83
59104;BME280;51449;51.676;5.812;2023-04-21T07:25:29;101341.28;;;11.99;77.04
59104;BME280;51449;51.676;5.812;2023-04-21T07:27:51;101340.59;;;12.11;76.81
59104;BME280;51449;51.676;5.812;2023-04-21T07:30:14;101334.56;;;12.18;76.65
59104;BME280;51449;51.676;5.812;2023-04-21T07:32:36;101334.97;;;12.29;75.98
59104;BME280;51449;51.676;5.812;2023-04-21T07:34:59;101319.66;;;12.40;75.64
59104;BME280;51449;51.676;5.812;2023-04-21T07:37:22;101317.78;;;12.53;75.38
59104;BME280;51449;51.676;5.812;2023-04-21T07:39:45;101307.34;;;12.58;74.74
59104;BME280;51449;51.676;5.812;2023-04-21T07:42:07;101313.16;;;12.66;74.34
59104;BME280;51449;51.676;5.812;2023-04-21T07:44:30;101320.91;;;12.72;74.13
59104;BME280;51449;51.676;5.812;2023-04-21T07:46:52;101327.78;;;12.87;73.53
59104;BME280;51449;51.676;5.812;2023-04-21T07:49:17;101332.47;;;12.95;73.21
59104;BME280;51449;51.676;5.812;2023-04-21T07:51:39;101324.63;;;12.97;72.28
59104;BME280;51449;51.676;5.812;2023-04-21T07:54:01;101319.09;;;12.97;71.85
59104;BME280;51449;51.676;5.812;2023-04-21T07:56:23;101326.38;;;13.02;71.98
59104;BME280;51449;51.676;5.812;2023-04-21T07:58:46;101322.59;;;13.06;71.88
59104;BME280;51449;51.676;5.812;2023-04-21T08:01:08;101332.16;;;13.09;71.22
59104;BME280;51449;51.676;5.812;2023-04-21T08:03:30;101329.41;;;13.09;70.88
59104;BME280;51449;51.676;5.812;2023-04-21T08:05:52;101327.56;;;13.13;71.07
59104;BME280;51449;51.676;5.812;2023-04-21T08:08:14;101328.38;;;13.14;70.79
59104;BME280;51449;51.676;5.812;2023-04-21T08:10:41;101327.56;;;13.13;70.21
59104;BME280;51449;51.676;5.812;2023-04-21T08:13:03;101327.91;;;13.12;70.37
59104;BME280;51449;51.676;5.812;2023-04-21T08:15:27;101329.19;;;13.14;69.78
59104;BME280;51449;51.676;5.812;2023-04-21T08:17:49;101330.03;;;13.15;69.75
59104;BME280;51449;51.676;5.812;2023-04-21T08:20:11;101323.66;;;13.14;69.37
59104;BME280;51449;51.676;5.812;2023-04-21T08:22:34;101330.81;;;13.15;69.23
59104;BME280;51449;51.676;5.812;2023-04-21T08:24:58;101327.72;;;13.17;69.20
59104;BME280;51449;51.676;5.812;2023-04-21T08:27:21;101328.53;;;13.17;69.33
59104;BME280;51449;51.676;5.812;2023-04-21T08:29:43;101327.84;;;13.20;69.50
59104;BME280;51449;51.676;5.812;2023-04-21T08:32:05;101322.09;;;13.25;70.02
59104;BME280;51449;51.676;5.812;2023-04-21T08:34:28;101330.00;;;13.36;69.99
59104;BME280;51449;51.676;5.812;2023-04-21T08:36:50;101325.66;;;13.47;69.76
59104;BME280;51449;51.676;5.812;2023-04-21T08:39:14;101314.84;;;13.54;69.61
59104;BME280;51449;51.676;5.812;2023-04-21T08:41:38;101320.88;;;13.56;69.39
59104;BME280;51449;51.676;5.812;2023-04-21T08:44:04;101314.31;;;13.61;68.92
59104;BME280;51449;51.676;5.812;2023-04-21T08:46:27;101322.50;;;13.69;69.02
59104;BME280;51449;51.676;5.812;2023-04-21T08:48:49;101313.06;;;13.83;68.90
59104;BME280;51449;51.676;5.812;2023-04-21T08:51:20;101313.19;;;13.99;68.92
59104;BME280;51449;51.676;5.812;2023-04-21T08:53:44;101309.06;;;14.17;68.90
59104;BME280;51449;51.676;5.812;2023-04-21T08:56:06;101302.09;;;14.35;68.04
59104;BME280;51449;51.676;5.812;2023-04-21T08:58:32;101307.88;;;14.55;67.72
59104;BME280;51449;51.676;5.812;2023-04-21T09:00:55;101310.31;;;14.69;67.19
59104;BME280;51449;51.676;5.812;2023-04-21T09:03:23;101298.25;;;14.77;66.59
59104;BME280;51449;51.676;5.812;2023-04-21T09:05:59;101304.94;;;14.88;65.09
59104;BME280;51449;51.676;5.812;2023-04-21T09:08:23;101293.47;;;15.02;65.05
59104;BME280;51449;51.676;5.812;2023-04-21T09:10:49;101298.97;;;15.14;64.66
59104;BME280;51449;51.676;5.812;2023-04-21T09:13:17;101294.66;;;15.17;64.24
59104;BME280;51449;51.676;5.812;2023-04-21T09:15:42;101300.22;;;15.17;64.04
59104;BME280;51449;51.676;5.812;2023-04-21T09:18:19;101297.78;;;15.15;63.53
59104;BME280;51449;51.676;5.812;2023-04-21T09:20:45;101302.63;;;15.18;63.52
59104;BME280;51449;51.676;5.812;2023-04-21T09:23:08;101292.72;;;15.33;63.54
59104;BME280;51449;51.676;5.812;2023-04-21T09:25:31;101297.59;;;15.36;63.71
59104;BME280;51449;51.676;5.812;2023-04-21T09:27:55;101303.13;;;15.36;63.93
59104;BME280;51449;51.676;5.812;2023-04-21T09:30:18;101307.06;;;15.35;64.00
59104;BME280;51449;51.676;5.812;2023-04-21T09:32:40;101301.41;;;15.32;63.28
59104;BME280;51449;51.676;5.812;2023-04-21T09:35:03;101314.72;;;15.26;63.26
59104;BME280;51449;51.676;5.812;2023-04-21T09:37:25;101306.31;;;15.23;63.31
59104;BME280;51449;51.676;5.812;2023-04-21T09:39:54;101304.72;;;15.22;62.80
59104;BME280;51449;51.676;5.812;2023-04-21T09:42:29;101301.94;;;15.22;63.08
59104;BME280;51449;51.676;5.812;2023-04-21T09:44:52;101303.06;;;15.20;63.19
59104;BME280;51449;51.676;5.812;2023-04-21T09:47:39;101297.78;;;15.15;62.17
59104;BME280;51449;51.676;5.812;2023-04-21T09:50:09;101294.09;;;15.11;62.38
59104;BME280;51449;51.676;5.812;2023-04-21T09:52:36;101296.78;;;15.08;62.36
59104;BME280;51449;51.676;5.812;2023-04-21T09:55:00;101292.81;;;15.09;62.62
59104;BME280;51449;51.676;5.812;2023-04-21T09:57:25;101287.47;;;15.16;62.67
59104;BME280;51449;51.676;5.812;2023-04-21T10:00:00;101291.63;;;15.22;62.76
59104;BME280;51449;51.676;5.812;2023-04-21T10:02:34;101291.72;;;15.26;63.08
59104;BME280;51449;51.676;5.812;2023-04-21T10:04:58;101287.16;;;15.33;62.93
59104;BME280;51449;51.676;5.812;2023-04-21T10:07:20;101294.53;;;15.41;62.84
59104;BME280;51449;51.676;5.812;2023-04-21T10:09:46;101288.28;;;15.45;62.71
59104;BME280;51449;51.676;5.812;2023-04-21T10:12:17;101288.19;;;15.57;62.56
59104;BME280;51449;51.676;5.812;2023-04-21T10:14:39;101281.66;;;15.65;61.58
59104;BME280;51449;51.676;5.812;2023-04-21T10:17:09;101272.28;;;15.70;61.60
59104;BME280;51449;51.676;5.812;2023-04-21T10:19:34;101284.75;;;15.76;61.42
59104;BME280;51449;51.676;5.812;2023-04-21T10:22:01;101278.13;;;15.80;61.37
59104;BME280;51449;51.676;5.812;2023-04-21T10:24:23;101279.81;;;16.01;61.08
59104;BME280;51449;51.676;5.812;2023-04-21T10:26:45;101279.09;;;16.20;60.22
59104;BME280;51449;51.676;5.812;2023-04-21T10:29:07;101281.47;;;16.21;59.92
59104;BME280;51449;51.676;5.812;2023-04-21T10:31:36;101275.22;;;16.24;59.78
59104;BME280;51449;51.676;5.812;2023-04-21T10:36:34;101271.72;;;16.27;59.04
59104;BME280;51449;51.676;5.812;2023-04-21T10:39:03;101267.72;;;16.44;59.15
59104;BME280;51449;51.676;5.812;2023-04-21T10:41:26;101256.75;;;16.52;59.03
59104;BME280;51449;51.676;5.812;2023-04-21T10:43:50;101256.75;;;16.52;58.79
59104;BME280;51449;51.676;5.812;2023-04-21T10:46:36;101255.50;;;16.49;58.68
59104;BME280;51449;51.676;5.812;2023-04-21T10:51:29;101246.09;;;16.73;58.78
59104;BME280;51449;51.676;5.812;2023-04-21T10:53:55;101244.19;;;16.77;58.50
59104;BME280;51449;51.676;5.812;2023-04-21T10:56:17;101234.59;;;16.75;57.11
59104;BME280;51449;51.676;5.812;2023-04-21T10:58:41;101229.75;;;16.72;57.35
59104;BME280;51449;51.676;5.812;2023-04-21T11:01:03;101223.69;;;16.66;57.72
59104;BME280;51449;51.676;5.812;2023-04-21T11:03:33;101219.97;;;16.78;57.92
59104;BME280;51449;51.676;5.812;2023-04-21T11:05:57;101216.91;;;16.83;57.98
59104;BME280;51449;51.676;5.812;2023-04-21T11:08:19;101217.75;;;16.87;57.52
59104;BME280;51449;51.676;5.812;2023-04-21T11:13:20;101207.25;;;17.42;57.79
59104;BME280;51449;51.676;5.812;2023-04-21T11:15:57;101199.72;;;17.66;57.05
59104;BME280;51449;51.676;5.812;2023-04-21T11:18:31;101196.72;;;17.78;56.23
59104;BME280;51449;51.676;5.812;2023-04-21T11:21:11;101197.59;;;17.82;56.43
59104;BME280;51449;51.676;5.812;2023-04-21T11:23:53;101194.66;;;17.75;56.28
59104;BME280;51449;51.676;5.812;2023-04-21T11:26:17;101183.03;;;17.92;55.86
59104;BME280;51449;51.676;5.812;2023-04-21T11:28:40;101166.59;;;17.87;56.26
59104;BME280;51449;51.676;5.812;2023-04-21T11:31:02;101175.72;;;17.84;56.15
59104;BME280;51449;51.676;5.812;2023-04-21T11:33:27;101169.22;;;18.00;55.81
59104;BME280;51449;51.676;5.812;2023-04-21T11:35:51;101168.44;;;18.03;55.54
59104;BME280;51449;51.676;5.812;2023-04-21T11:38:18;101159.56;;;18.24;55.40
59104;BME280;51449;51.676;5.812;2023-04-21T11:40:46;101166.97;;;18.43;54.67
59104;BME280;51449;51.676;5.812;2023-04-21T11:43:09;101157.34;;;18.36;54.36
59104;BME280;51449;51.676;5.812;2023-04-21T11:45:33;101157.72;;;18.35;54.72
59104;BME280;51449;51.676;5.812;2023-04-21T11:48:13;101157.41;;;18.10;54.03
59104;BME280;51449;51.676;5.812;2023-04-21T11:50:38;101151.59;;;18.22;54.29
59104;BME280;51449;51.676;5.812;2023-04-21T11:53:01;101150.38;;;18.23;53.21
59104;BME280;51449;51.676;5.812;2023-04-21T11:55:23;101152.50;;;18.33;52.47
59104;BME280;51449;51.676;5.812;2023-04-21T11:57:45;101145.50;;;18.47;53.64
59104;BME280;51449;51.676;5.812;2023-04-21T12:00:11;101142.06;;;18.60;52.78
59104;BME280;51449;51.676;5.812;2023-04-21T12:02:35;101137.91;;;18.77;53.76
59104;BME280;51449;51.676;5.812;2023-04-21T12:04:59;101136.97;;;19.00;52.71
59104;BME280;51449;51.676;5.812;2023-04-21T12:07:26;101136.97;;;19.03;52.42
59104;BME280;51449;51.676;5.812;2023-04-21T12:09:51;101131.91;;;19.16;51.00
59104;BME280;51449;51.676;5.812;2023-04-21T12:12:14;101130.56;;;18.99;51.00
59104;BME280;51449;51.676;5.812;2023-04-21T12:14:36;101139.59;;;18.86;51.07
59104;BME280;51449;51.676;5.812;2023-04-21T12:16:58;101139.41;;;18.71;51.07
59104;BME280;51449;51.676;5.812;2023-04-21T12:19:39;101128.88;;;18.54;51.32
59104;BME280;51449;51.676;5.812;2023-04-21T12:22:06;101125.31;;;18.57;51.69
59104;BME280;51449;51.676;5.812;2023-04-21T12:24:44;101122.00;;;18.48;52.39
59104;BME280;51449;51.676;5.812;2023-04-21T12:27:07;101111.22;;;18.46;52.44
59104;BME280;51449;51.676;5.812;2023-04-21T12:29:30;101116.66;;;18.69;52.48
59104;BME280;51449;51.676;5.812;2023-04-21T12:31:52;101108.47;;;18.84;51.30
59104;BME280;51449;51.676;5.812;2023-04-21T12:34:14;101095.44;;;18.95;51.47
59104;BME280;51449;51.676;5.812;2023-04-21T12:36:36;101101.47;;;19.04;52.10
59104;BME280;51449;51.676;5.812;2023-04-21T12:38:59;101092.28;;;19.00;52.58
59104;BME280;51449;51.676;5.812;2023-04-21T12:41:21;101091.13;;;19.05;52.52
59104;BME280;51449;51.676;5.812;2023-04-21T12:43:43;101092.81;;;19.16;52.30